^^
Grace C. Lehan Memorial Weather Station Historical Data
Daily Summary for September 22, 2022 Units:  Metric    English   Both
Daily Weekly Monthly Yearly
  High: Low: Average:
Temperature: 20.7 °C 13.9 °C 16.1 °C
Dew Point: 19.8 °C 10.5 °C 13.7 °C
Humidity: 96% 75.5% 86%
Wind Speed: 8.7km/h 0km/h 1.4km/h
Wind Gust: 25.7km/h - -
Wind- - WNW
Pressure: 1006.7 hPa 998.5 hPa -
Precipitation: 24.38 mm    
 
 
Tabular Data for September 22, 2022
Time Temperature Dew Point Pressure Wind Wind Speed Wind Gust Humidity Rainfall Rate (Hourly) solar
01:00 18.7 °C 17.6 °C 1006.7 hPa Calm     93% 0 mm 0 W/m2
03:00 19.3 °C 18.3 °C 1004.6 hPa Calm     94% 0 mm 0 W/m2
06:00 19.9 °C 18.4 °C 1002.3 hPa Calm   4.8 km/h 91% 0 mm 0 W/m2
07:30 20.7 °C 19.2 °C 1000.6 hPa Calm   6.4 km/h 91% 0 mm 0 W/m2
08:30 20.1 °C 18.9 °C 1001.9 hPa Calm   19.3 km/h 93% 8.13 mm 0 W/m2
09:00 19.7 °C 18.7 °C 1001.6 hPa Calm   9.7 km/h 94% 8.89 mm 18 W/m2
10:00 20 °C 19.2 °C 999.9 hPa Calm     95% 1.02 mm 54 W/m2
10:30 20.3 °C 19.6 °C 999.9 hPa Calm     96% 0.25 mm 58 W/m2
11:00 20.5 °C 19.8 °C 999.2 hPa Calm   3.2 km/h 96% 0 mm 70 W/m2
11:30 20.5 °C 19.8 °C 999.2 hPa Calm     96% 2.29 mm 9 W/m2
12:00 20.4 °C 19.8 °C 998.9 hPa Calm   6.4 km/h 96% 0 mm 35 W/m2
12:30 18 °C 17 °C 999.5 hPa WNW 3.2 km/h 25.7 km/h 94% 0.76 mm 52 W/m2
13:00 15.7 °C 14.4 °C 1000.2 hPa NW 3.2 km/h 20.9 km/h 92% 0 mm 35 W/m2
13:30 15.2 °C 14.2 °C 1000.6 hPa Calm   6.4 km/h 94% 3.05 mm 31 W/m2
14:00 15.1 °C 14.2 °C 1000.6 hPa Calm   3.2 km/h 94% 1.02 mm 26 W/m2
14:30 14.8 °C 13.9 °C 1000.2 hPa Calm     94% 2.29 mm 21 W/m2
15:00 14.8 °C 14.1 °C 1000.2 hPa Calm     95% 2.03 mm 30 W/m2
15:30 15.1 °C 14.3 °C 998.5 hPa Calm     95% 2.03 mm 86 W/m2
16:04 15.9 °C 15.3 °C 998.9 hPa NNW 0.8 km/h 4.8 km/h 95.9% 11.94 mm 86 W/m2
16:09 16.1 °C 15.5 °C 998.9 hPa NW 0.2 km/h 4.8 km/h 96% 11.94 mm 86 W/m2
16:14 16.3 °C 15.7 °C 998.9 hPa Calm   4.8 km/h 96% 11.94 mm 69 W/m2
16:19 16.5 °C 15.8 °C 998.9 hPa Calm   4.8 km/h 96% 11.94 mm 83 W/m2
16:24 16.6 °C 15.9 °C 998.9 hPa NW 0.5 km/h 4.8 km/h 96% 11.94 mm 109 W/m2
16:29 16.7 °C 15.9 °C 998.9 hPa NW 0.3 km/h 4.8 km/h 95.5% 11.94 mm 123 W/m2
16:34 16.7 °C 15.9 °C 998.9 hPa Calm   4.8 km/h 95% 11.94 mm 121 W/m2
16:39 16.7 °C 15.9 °C 998.9 hPa Calm     95% 11.43 mm 120 W/m2
16:44 16.8 °C 16 °C 998.9 hPa Calm     95% 11.43 mm 120 W/m2
16:49 16.9 °C 16.1 °C 998.9 hPa Calm     95% 11.43 mm 86 W/m2
16:54 16.9 °C 16.1 °C 998.9 hPa NW 0.2 km/h 3.2 km/h 95% 11.43 mm 91 W/m2
16:59 16.9 °C 16.2 °C 998.9 hPa NW 0.3 km/h 4.8 km/h 95% 11.43 mm 91 W/m2
17:04 17.1 °C 16.2 °C 998.9 hPa Calm   4.8 km/h 95% 11.43 mm 74 W/m2
17:09 17.1 °C 16.3 °C 998.9 hPa Calm     95% 0 mm 67 W/m2
17:14 17.2 °C 16.4 °C 998.9 hPa Calm     95% 0 mm 62 W/m2
17:18 17.2 °C 16.4 °C 998.9 hPa Calm     95% 0 mm 42 W/m2
17:24 17.2 °C 16.4 °C 998.9 hPa WNW 2.6 km/h 17.7 km/h 94.7% 0 mm 30 W/m2
17:29 17.1 °C 16.1 °C 998.9 hPa Calm   17.7 km/h 93.7% 0 mm 26 W/m2
17:34 17.2 °C 16.1 °C 998.9 hPa WNW 0.6 km/h 17.7 km/h 93.8% 0 mm 25 W/m2
17:39 17.2 °C 16 °C 999.2 hPa NW 1.8 km/h 11.3 km/h 92.9% 0 mm 25 W/m2
17:44 16.9 °C 15.4 °C 999.2 hPa WNW 4.7 km/h 19.3 km/h 90.8% 0 mm 23 W/m2
17:49 16.8 °C 14.8 °C 999.5 hPa West 1.8 km/h 19.3 km/h 88.3% 0 mm 21 W/m2
17:54 16.7 °C 14.6 °C 999.5 hPa WNW 1.3 km/h 19.3 km/h 87.3% 0 mm 21 W/m2
17:59 16.7 °C 14.4 °C 999.5 hPa WNW 0.6 km/h 19.3 km/h 86.7% 0 mm 18 W/m2
18:04 16.6 °C 14.2 °C 999.5 hPa WNW 0.3 km/h 19.3 km/h 86% 0 mm 18 W/m2
18:09 16.5 °C 14.2 °C 999.5 hPa WNW 0.2 km/h 4.8 km/h 86% 0 mm 16 W/m2
18:30 16.1 °C 13.6 °C 1000.2 hPa Calm   6.4 km/h 85% 0 mm 12 W/m2
19:00 15.6 °C 12.7 °C 1000.6 hPa WNW 1.6 km/h 17.7 km/h 83% 0 mm 1 W/m2
19:30 15.3 °C 12.1 °C 1000.9 hPa Calm   17.7 km/h 81% 0 mm 0 W/m2
20:04 15.6 °C 11.4 °C 1001.6 hPa WNW 7.2 km/h 17.7 km/h 76.3% 24.38 mm 0 W/m2
20:09 15.6 °C 11.3 °C 1001.9 hPa WNW 7.9 km/h 20.9 km/h 76% 24.38 mm 0 W/m2
20:14 15.6 °C 11.3 °C 1001.9 hPa WNW 8.7 km/h 25.7 km/h 75.5% 24.38 mm 0 W/m2
20:19 15.7 °C 11.3 °C 1002.3 hPa WNW 6.6 km/h 25.7 km/h 75.5% 24.38 mm 0 W/m2
20:24 15.6 °C 11.4 °C 1002.3 hPa WNW 5.5 km/h 25.7 km/h 76% 24.38 mm 0 W/m2
20:29 15.6 °C 11.3 °C 1002.6 hPa WNW 6.9 km/h 25.7 km/h 76% 24.38 mm 0 W/m2
20:34 15.6 °C 11.3 °C 1002.6 hPa WNW 5.6 km/h 25.7 km/h 76.1% 24.38 mm 0 W/m2
20:39 15.5 °C 11.4 °C 1002.6 hPa WNW 6 km/h 22.5 km/h 76.5% 24.38 mm 0 W/m2
20:44 15.4 °C 11.4 °C 1002.6 hPa WNW 4.8 km/h 22.5 km/h 76.8% 24.38 mm 0 W/m2
20:49 15.4 °C 11.4 °C 1002.6 hPa WNW 2.9 km/h 22.5 km/h 77% 24.38 mm 0 W/m2
20:54 15.3 °C 11.3 °C 1002.6 hPa WNW 7.4 km/h 22.5 km/h 77% 24.38 mm 0 W/m2
20:59 15.3 °C 11.3 °C 1002.6 hPa WNW 1.1 km/h 22.5 km/h 77.4% 24.38 mm 0 W/m2
21:04 15.2 °C 11.4 °C 1002.9 hPa WNW 1.9 km/h 22.5 km/h 78% 24.38 mm 0 W/m2
21:09 15.2 °C 11.6 °C 1002.9 hPa NW 1 km/h 16.1 km/h 78.7% 0 mm 0 W/m2
21:14 15.2 °C 11.6 °C 1002.9 hPa NW 0.6 km/h 16.1 km/h 79% 0 mm 0 W/m2
21:19 15.2 °C 11.6 °C 1002.9 hPa WNW 2.6 km/h 17.7 km/h 79% 0 mm 0 W/m2
21:24 15.1 °C 11.6 °C 1002.9 hPa West 1.6 km/h 17.7 km/h 79.3% 0 mm 0 W/m2
21:29 15.1 °C 11.7 °C 1002.9 hPa WNW 1.6 km/h 17.7 km/h 80% 0 mm 0 W/m2
21:34 15.1 °C 11.7 °C 1003.3 hPa WNW 2.4 km/h 17.7 km/h 80% 0 mm 0 W/m2
21:39 15.1 °C 11.7 °C 1003.3 hPa West 4.5 km/h 19.3 km/h 80% 0 mm 0 W/m2
21:44 15.1 °C 11.6 °C 1003.3 hPa WNW 1.8 km/h 19.3 km/h 80% 0 mm 0 W/m2
21:49 15 °C 11.6 °C 1003.3 hPa West 2.1 km/h 19.3 km/h 80% 0 mm 0 W/m2
21:54 14.9 °C 11.6 °C 1003.3 hPa WNW 2.4 km/h 19.3 km/h 80.2% 0 mm 0 W/m2
21:59 14.9 °C 11.7 °C 1003.3 hPa WNW 1.6 km/h 19.3 km/h 81% 0 mm 0 W/m2
22:04 14.8 °C 11.6 °C 1003.3 hPa WNW 3.9 km/h 19.3 km/h 81% 0 mm 0 W/m2
22:09 14.8 °C 11.6 °C 1003.6 hPa West 0.2 km/h 16.1 km/h 81% 0 mm 0 W/m2
22:14 14.7 °C 11.5 °C 1003.6 hPa WNW 1.1 km/h 16.1 km/h 81% 0 mm 0 W/m2
22:19 14.7 °C 11.4 °C 1003.6 hPa WNW 0.8 km/h 16.1 km/h 81% 0 mm 0 W/m2
22:24 14.6 °C 11.3 °C 1003.6 hPa WNW 0.3 km/h 16.1 km/h 81% 0 mm 0 W/m2
22:29 14.5 °C 11.3 °C 1003.9 hPa WNW 0.5 km/h 16.1 km/h 81% 0 mm 0 W/m2
22:34 14.4 °C 11.2 °C 1004.3 hPa WNW 0.2 km/h 16.1 km/h 81% 0 mm 0 W/m2
22:39 14.4 °C 11.3 °C 1004.3 hPa Calm   3.2 km/h 81.6% 0 mm 0 W/m2
22:44 14.3 °C 11.3 °C 1004.3 hPa Calm   3.2 km/h 82% 0 mm 0 W/m2
22:49 14.3 °C 11.3 °C 1004.6 hPa Calm   3.2 km/h 82% 0 mm 0 W/m2
22:54 14.3 °C 11.3 °C 1004.6 hPa Calm   3.2 km/h 82.5% 0 mm 0 W/m2
22:59 14.3 °C 11.4 °C 1004.6 hPa Calm   3.2 km/h 83% 0 mm 0 W/m2
23:04 14.2 °C 11.4 °C 1005 hPa NW 0.8 km/h 8 km/h 83% 0 mm 0 W/m2
23:09 14.2 °C 11.1 °C 1005 hPa WNW 4.7 km/h 19.3 km/h 81.7% 0 mm 0 W/m2
23:14 14.2 °C 10.8 °C 1005 hPa NW 2.6 km/h 19.3 km/h 80.2% 0 mm 0 W/m2
23:19 14.2 °C 10.6 °C 1005 hPa NW 1.8 km/h 19.3 km/h 78.9% 0 mm 0 W/m2
23:24 14.3 °C 10.5 °C 1005 hPa NNW 0.2 km/h 19.3 km/h 78.2% 0 mm 0 W/m2
23:29 14.3 °C 10.7 °C 1005 hPa NW 0.3 km/h 19.3 km/h 79% 0 mm 0 W/m2
23:34 14.2 °C 10.7 °C 1005 hPa NW 0.2 km/h 19.3 km/h 79% 0 mm 0 W/m2
23:39 14.2 °C 10.8 °C 1005 hPa WNW 1.3 km/h 11.3 km/h 80% 0 mm 0 W/m2
23:44 14.1 °C 10.7 °C 1005 hPa Calm   11.3 km/h 80% 0 mm 0 W/m2
23:49 14 °C 10.7 °C 1005.3 hPa WNW 0.5 km/h 11.3 km/h 80.2% 0 mm 0 W/m2
23:54 13.9 °C 10.7 °C 1005.3 hPa Calm   11.3 km/h 81% 0 mm 0 W/m2
23:59 13.9 °C 10.7 °C 1005.3 hPa WNW 0.5 km/h 11.3 km/h 81% 0 mm 0 W/m2
Hartford County Weather
Compliments of Weather Underground - 4 mb